createdAt,value
2023-03-16T00:01:10.419Z,4.95
2023-03-16T00:06:02.932Z,5.38
2023-03-16T00:10:56.622Z,6.22
2023-03-16T00:15:55.216Z,4.20
2023-03-16T00:20:48.561Z,4.68
2023-03-16T00:25:43.447Z,3.88
2023-03-16T00:30:34.823Z,5.15
2023-03-16T00:35:29.545Z,4.60
2023-03-16T00:40:22.585Z,4.80
2023-03-16T00:45:17.635Z,5.10
2023-03-16T00:50:13.064Z,5.23
2023-03-16T00:55:03.600Z,5.20
2023-03-16T00:59:53.818Z,5.43
2023-03-16T01:04:47.145Z,5.75
2023-03-16T01:09:39.346Z,4.50
2023-03-16T01:14:34.296Z,5.15
2023-03-16T01:19:26.768Z,4.60
2023-03-16T01:24:20.983Z,4.23
2023-03-16T01:29:13.313Z,5.30
2023-03-16T01:34:08.251Z,4.85
2023-03-16T01:39:01.222Z,4.22
2023-03-16T01:44:03.827Z,5.38
2023-03-16T01:49:10.953Z,4.55
2023-03-16T01:54:15.067Z,7.18
2023-03-16T01:59:19.715Z,5.90
2023-03-16T02:04:26.641Z,5.57
2023-03-16T02:09:22.680Z,5.40
2023-03-16T02:14:16.591Z,3.58
2023-03-16T02:19:13.589Z,6.00
2023-03-16T02:24:07.507Z,3.77
2023-03-16T02:29:11.395Z,4.32
2023-03-16T02:34:07.558Z,4.07
2023-03-16T02:38:59.191Z,4.90
2023-03-16T02:43:57.062Z,3.93
2023-03-16T02:49:03.477Z,4.78
2023-03-16T02:54:03.854Z,3.97
2023-03-16T02:58:58.586Z,5.38
2023-03-16T03:03:52.288Z,5.13
2023-03-16T03:08:46.007Z,4.20
2023-03-16T03:13:44.981Z,2.92
2023-03-16T03:18:40.410Z,3.83
2023-03-16T03:23:31.805Z,3.70
2023-03-16T03:28:25.268Z,4.60
2023-03-16T03:33:18.962Z,6.28
2023-03-16T03:38:13.776Z,3.08
2023-03-16T03:43:09.067Z,6.47
2023-03-16T03:48:08.312Z,4.68
2023-03-16T03:53:02.350Z,4.55
2023-03-16T03:57:58.954Z,4.30
2023-03-16T04:02:53.176Z,3.63
2023-03-16T04:07:55.633Z,4.97
2023-03-16T04:12:57.812Z,5.57
2023-03-16T04:17:50.764Z,3.38
2023-03-16T04:22:43.244Z,5.20
2023-03-16T04:27:36.873Z,4.40
2023-03-16T04:32:40.911Z,4.45
2023-03-16T04:37:32.586Z,3.13
2023-03-16T04:42:23.598Z,4.63
2023-03-16T04:47:14.306Z,3.37
2023-03-16T04:52:08.405Z,5.25
2023-03-16T04:56:59.983Z,2.95
2023-03-16T05:02:02.070Z,5.82
2023-03-16T05:06:55.644Z,3.75
2023-03-16T05:11:56.111Z,4.05
2023-03-16T05:16:50.275Z,3.72
2023-03-16T05:21:42.674Z,3.60
2023-03-16T05:26:41.509Z,4.28
2023-03-16T05:31:40.157Z,4.47
2023-03-16T05:36:38.336Z,4.55
2023-03-16T05:41:41.372Z,4.30
2023-03-16T05:46:56.701Z,5.15
2023-03-16T05:51:49.205Z,3.00
2023-03-16T05:56:40.002Z,3.78
2023-03-16T06:01:32.024Z,3.40
2023-03-16T06:06:25.593Z,4.60
2023-03-16T06:11:39.070Z,4.23
2023-03-16T06:16:34.055Z,2.83
2023-03-16T06:21:34.566Z,5.30
2023-03-16T06:26:35.165Z,3.43
2023-03-16T06:31:30.459Z,5.00
2023-03-16T06:36:21.952Z,3.95
2023-03-16T06:41:23.362Z,4.43
2023-03-16T06:46:19.663Z,3.63
2023-03-16T06:51:16.319Z,4.13
2023-03-16T06:56:13.139Z,4.10
2023-03-16T07:01:12.837Z,3.10
2023-03-16T07:06:06.109Z,4.13
2023-03-16T07:10:58.764Z,4.00
2023-03-16T07:15:50.062Z,5.20
2023-03-16T07:20:44.892Z,3.35
2023-03-16T07:25:35.329Z,3.65
2023-03-16T07:30:28.254Z,4.22
2023-03-16T07:35:19.000Z,4.35
2023-03-16T07:40:15.216Z,3.20
2023-03-16T07:45:09.478Z,4.10
2023-03-16T07:50:01.842Z,4.15
2023-03-16T07:54:52.850Z,2.60
2023-03-16T07:59:50.171Z,3.10
2023-03-16T08:04:46.112Z,4.13
2023-03-16T08:09:53.470Z,4.57
2023-03-16T08:14:54.963Z,2.30
2023-03-16T08:19:51.999Z,4.47
2023-03-16T08:24:49.770Z,2.97
2023-03-16T08:29:42.857Z,2.50
2023-03-16T08:34:44.081Z,2.85
2023-03-16T08:39:38.059Z,2.53
2023-03-16T08:44:37.336Z,2.83
2023-03-16T08:49:30.777Z,2.78
2023-03-16T08:54:36.028Z,2.55
2023-03-16T08:59:30.459Z,4.35
2023-03-16T09:04:22.026Z,2.08
2023-03-16T09:09:13.867Z,2.17
2023-03-16T09:14:07.104Z,1.60
2023-03-16T09:18:58.706Z,2.80
2023-03-16T12:56:53.888Z,0.97
2023-03-16T13:01:48.360Z,2.45
2023-03-16T13:06:53.677Z,1.73
2023-03-16T13:11:50.577Z,1.95
2023-03-16T13:16:45.706Z,1.10
2023-03-16T13:21:44.831Z,1.40
2023-03-16T13:26:53.580Z,0.43
2023-03-16T13:32:00.773Z,0.98
2023-03-16T13:36:59.961Z,0.95
2023-03-16T13:42:03.834Z,1.35
2023-03-16T13:46:57.371Z,1.23
2023-03-16T13:51:50.086Z,1.17
2023-03-16T13:56:47.449Z,0.55
2023-03-16T14:01:41.957Z,0.82
2023-03-16T14:06:35.735Z,1.45
2023-03-16T14:11:30.043Z,1.75
2023-03-16T14:16:29.565Z,3.05
2023-03-16T14:21:26.128Z,1.23
2023-03-16T14:26:22.734Z,1.65
2023-03-16T14:31:28.544Z,1.63
2023-03-16T14:36:26.180Z,0.22
2023-03-16T14:41:28.923Z,1.17
2023-03-16T15:55:08.831Z,0.90
2023-03-16T16:00:02.960Z,4.55
2023-03-16T16:04:56.724Z,0.88
2023-03-16T16:09:50.136Z,1.10
2023-03-16T16:14:45.383Z,1.25
2023-03-16T16:19:39.895Z,0.70
2023-03-16T16:24:31.664Z,0.60
2023-03-16T16:29:26.030Z,1.88
2023-03-16T16:34:22.642Z,2.00
2023-03-16T16:39:15.704Z,0.63
2023-03-16T16:44:10.488Z,1.38
2023-03-16T16:49:26.798Z,0.90
2023-03-16T16:54:19.302Z,0.90
2023-03-16T16:59:19.404Z,1.48
2023-03-16T17:04:24.031Z,1.40
2023-03-16T17:09:14.835Z,0.88
2023-03-16T17:14:08.086Z,1.60
2023-03-16T17:18:58.836Z,1.00
2023-03-16T17:24:04.493Z,1.00
2023-03-16T17:29:02.538Z,2.37
2023-03-16T17:33:59.747Z,5.63
2023-03-16T17:39:03.911Z,0.88
2023-03-16T17:43:58.648Z,1.10
2023-03-16T17:48:51.431Z,2.15
2023-03-16T17:53:42.940Z,1.03
2023-03-16T17:58:37.604Z,1.38
2023-03-16T18:03:30.851Z,2.80
2023-03-16T18:08:30.040Z,1.10
2023-03-16T18:13:23.489Z,0.90
2023-03-16T18:18:22.534Z,1.20
2023-03-16T18:23:20.753Z,1.92
2023-03-16T18:28:14.464Z,1.75
2023-03-16T18:33:07.718Z,0.80
2023-03-16T18:38:01.262Z,1.50
2023-03-16T18:42:55.487Z,1.30
2023-03-16T18:47:59.186Z,1.10
2023-03-16T18:52:59.971Z,1.15
2023-03-16T18:57:59.890Z,1.30
2023-03-16T19:02:55.583Z,1.25
2023-03-16T19:07:57.737Z,1.23
2023-03-16T19:12:50.766Z,0.80
2023-03-16T19:17:49.102Z,0.70
2023-03-16T19:22:44.436Z,1.50
2023-03-16T19:27:46.343Z,0.90
2023-03-16T19:32:39.373Z,0.60
2023-03-16T19:37:36.913Z,2.00
2023-03-16T19:42:34.336Z,1.43
2023-03-16T19:47:32.379Z,1.92
2023-03-16T19:52:26.429Z,1.05
2023-03-16T19:57:26.098Z,2.08
2023-03-16T20:02:32.402Z,1.87
2023-03-16T20:07:23.853Z,1.75
2023-03-16T20:12:27.832Z,1.20
2023-03-16T20:17:27.301Z,1.60
2023-03-16T20:22:23.085Z,1.63
2023-03-16T20:27:16.022Z,1.70
2023-03-16T20:32:22.356Z,3.30
2023-03-16T20:37:29.607Z,1.13
2023-03-16T20:42:27.209Z,1.73
2023-03-16T20:47:24.701Z,2.30
2023-03-16T20:52:20.000Z,1.10
2023-03-16T20:57:19.811Z,0.77
2023-03-16T21:02:32.341Z,1.25
2023-03-16T21:07:25.489Z,1.10
2023-03-16T21:12:26.518Z,1.20
2023-03-16T21:17:27.844Z,1.38
2023-03-16T21:22:29.952Z,0.90
2023-03-16T21:27:29.223Z,1.70
2023-03-16T21:32:30.080Z,1.10
2023-03-16T21:37:28.150Z,2.13
2023-03-16T21:42:20.258Z,1.70
2023-03-16T21:47:25.740Z,2.10
2023-03-16T21:52:30.956Z,1.80
2023-03-16T21:57:22.468Z,1.95
2023-03-16T22:02:26.867Z,2.47
2023-03-16T22:07:29.932Z,1.60
2023-03-16T22:12:26.796Z,1.65
2023-03-16T22:17:23.510Z,1.77
2023-03-16T22:22:19.016Z,2.30
2023-03-16T22:27:19.083Z,2.53
2023-03-16T22:32:26.843Z,2.10
2023-03-16T22:37:23.682Z,1.52
2023-03-16T22:42:41.437Z,2.07
2023-03-16T22:47:41.368Z,1.60
2023-03-16T22:52:43.898Z,1.40
2023-03-16T22:57:35.382Z,1.80
2023-03-16T23:02:29.620Z,1.52
2023-03-16T23:07:30.246Z,2.63
2023-03-16T23:12:28.904Z,1.70
2023-03-16T23:17:23.519Z,1.63
2023-03-16T23:22:25.570Z,1.38
2023-03-16T23:27:20.280Z,1.70
2023-03-16T23:32:13.096Z,1.90
2023-03-16T23:37:04.994Z,2.00
2023-03-16T23:42:04.513Z,1.17
2023-03-16T23:46:59.796Z,1.80
2023-03-16T23:51:51.686Z,1.57
2023-03-16T23:56:41.757Z,2.10
